Iberica Hav — C6YI3 — position and weather

sailwx.info

Track history (hours):
 
Tides and Currents Weather Stations Pressure Air Temp Water Temp Dewpoint Dewpoint Depression Visibility Wind Speed Wind Dir Waves Ship Positions

Iberica Hav

Last reported at 2014-Sep-19 04:30 UTC. Time now 2014-Sep-20 12:04 UTC.
Position N 54°42' E 020°27'.

Length 88 m; draft 3 m.

Type: Cargo ship. MMSI: 311034400.

Date/timePositionNaut miles runAvg speedWind from/ knotsBaromVisibWave heightAir tempDewpointWater temp
2014-Sep-19 04:30N 54°42' E 020°27'0 0.0
2014-Sep-18 08:30N 54°42' E 020°27'0 0.0
2014-Sep-18 07:27N 54°42' E 020°27'0 0.0
2014-Sep-18 06:30N 54°42' E 020°27'0 0.0
2014-Sep-18 05:33N 54°42' E 020°27'0 0.0
2014-Sep-18 04:30N 54°42' E 020°27'0 0.0
2014-Sep-18 03:33N 54°42' E 020°27'0 0.0
2014-Sep-18 02:33N 54°42' E 020°27'0 0.0
2014-Sep-18 01:33N 54°42' E 020°27'0 0.0
2014-Sep-18 00:33N 54°42' E 020°27'0 0.0
2014-Sep-17 23:33N 54°42' E 020°27'0 0.0
2014-Sep-17 22:30N 54°42' E 020°27'0 0.0
2014-Sep-17 07:27N 54°42' E 020°27'0 0.0
2014-Sep-17 06:15N 54°42' E 020°27'0 0.0
2014-Sep-17 05:18N 54°42' E 020°27'0 0.0
2014-Sep-17 04:12N 54°42' E 020°27'0 0.0
2014-Sep-17 03:33N 54°42' E 020°27'0 0.0
2014-Sep-17 02:33N 54°42' E 020°27'0 0.0
2014-Sep-16 23:21N 54°42' E 020°27'0 0.0
2014-Sep-16 22:15N 54°42' E 020°27'0 0.0
2014-Sep-16 10:33N 54°42' E 020°27'0 0.0
2014-Sep-16 09:21N 54°42' E 020°27'0 0.0
2014-Sep-16 08:33N 54°42' E 020°27'0 0.0
2014-Sep-16 07:33N 54°42' E 020°27'0 0.0
2014-Sep-16 01:33N 54°42' E 020°27'0 0.0
2014-Sep-15 23:24N 54°42' E 020°27'0 0.0
2014-Sep-15 22:33N 54°42' E 020°27'0 0.0
2014-Sep-15 21:21N 54°42' E 020°27'0 0.0
2014-Sep-15 18:09N 54°42' E 020°27'0 0.0
2014-Sep-15 17:29N 54°42' E 020°27'  
2014-Sep-10 11:32N 54°45' E 019°28'9 9.5
2014-Sep-10 10:33N 54°48' E 019°12'9 9.4
2014-Sep-10 09:33N 54°51' E 018°57'9 9.3
2014-Sep-10 08:33N 54°54' E 018°42'9 9.0
2014-Sep-10 07:33N 54°55' E 018°26'1010.0
2014-Sep-10 06:30N 54°54' E 018°08'139 9.3
2014-Sep-09 15:33N 54°03' E 014°25'8 8.2
2014-Sep-09 14:33N 53°57' E 014°17'7 7.4
2014-Sep-09 13:33N 53°50' E 014°19'10 9.8
2014-Sep-09 12:33N 53°42' E 014°29'12 9.8
2014-Sep-09 11:18N 53°31' E 014°38'  
Track history (hours):
 
Tides and Currents Weather Stations Pressure Air Temp Water Temp Dewpoint Dewpoint Depression Visibility Wind Speed Wind Dir Waves Ship Positions

Iberica Hav

Last reported at 2014-Sep-19 04:30 UTC. Time now 2014-Sep-20 12:04 UTC.
Position N 54°42' E 020°27'.

Length 88 m; draft 3 m.

Type: Cargo ship. MMSI: 311034400.

Date/timePositionNaut miles runAvg speedWind from/ knotsBaromVisibWave heightAir tempDewpointWater temp
2014-Sep-19 04:30N 54°42' E 020°27'0 0.0
2014-Sep-18 08:30N 54°42' E 020°27'0 0.0
2014-Sep-18 07:27N 54°42' E 020°27'0 0.0
2014-Sep-18 06:30N 54°42' E 020°27'0 0.0
2014-Sep-18 05:33N 54°42' E 020°27'0 0.0
2014-Sep-18 04:30N 54°42' E 020°27'0 0.0
2014-Sep-18 03:33N 54°42' E 020°27'0 0.0
2014-Sep-18 02:33N 54°42' E 020°27'0 0.0
2014-Sep-18 01:33N 54°42' E 020°27'0 0.0
2014-Sep-18 00:33N 54°42' E 020°27'0 0.0
2014-Sep-17 23:33N 54°42' E 020°27'0 0.0
2014-Sep-17 22:30N 54°42' E 020°27'0 0.0
2014-Sep-17 07:27N 54°42' E 020°27'0 0.0
2014-Sep-17 06:15N 54°42' E 020°27'0 0.0
2014-Sep-17 05:18N 54°42' E 020°27'0 0.0
2014-Sep-17 04:12N 54°42' E 020°27'0 0.0
2014-Sep-17 03:33N 54°42' E 020°27'0 0.0
2014-Sep-17 02:33N 54°42' E 020°27'0 0.0
2014-Sep-16 23:21N 54°42' E 020°27'0 0.0
2014-Sep-16 22:15N 54°42' E 020°27'0 0.0
2014-Sep-16 10:33N 54°42' E 020°27'0 0.0
2014-Sep-16 09:21N 54°42' E 020°27'0 0.0
2014-Sep-16 08:33N 54°42' E 020°27'0 0.0
2014-Sep-16 07:33N 54°42' E 020°27'0 0.0
2014-Sep-16 01:33N 54°42' E 020°27'0 0.0
2014-Sep-15 23:24N 54°42' E 020°27'0 0.0
2014-Sep-15 22:33N 54°42' E 020°27'0 0.0
2014-Sep-15 21:21N 54°42' E 020°27'0 0.0
2014-Sep-15 18:09N 54°42' E 020°27'0 0.0
2014-Sep-15 17:29N 54°42' E 020°27'  
2014-Sep-10 11:32N 54°45' E 019°28'9 9.5
2014-Sep-10 10:33N 54°48' E 019°12'9 9.4
2014-Sep-10 09:33N 54°51' E 018°57'9 9.3
2014-Sep-10 08:33N 54°54' E 018°42'9 9.0
2014-Sep-10 07:33N 54°55' E 018°26'1010.0
2014-Sep-10 06:30N 54°54' E 018°08'139 9.3
2014-Sep-09 15:33N 54°03' E 014°25'8 8.2
2014-Sep-09 14:33N 53°57' E 014°17'7 7.4
2014-Sep-09 13:33N 53°50' E 014°19'10 9.8
2014-Sep-09 12:33N 53°42' E 014°29'12 9.8
2014-Sep-09 11:18N 53°31' E 014°38'  

Dump ship's entire track history